sensor_id;sensor_type;location;lat;lon;timestamp;pressure;altitude;pressure_sealevel;temperature;humidity
7754;BME280;3921;42.266;23.122;2023-04-06T00:02:03;95135.88;;;4.52;51.12
7754;BME280;3921;42.266;23.122;2023-04-06T00:04:30;95427.59;;;6.23;51.16
7754;BME280;3921;42.266;23.122;2023-04-06T00:06:57;95463.63;;;6.52;51.00
7754;BME280;3921;42.266;23.122;2023-04-06T00:09:24;95429.97;;;6.10;51.24
7754;BME280;3921;42.266;23.122;2023-04-06T00:11:51;95348.88;;;5.73;51.17
7754;BME280;3921;42.266;23.122;2023-04-06T00:14:18;95294.47;;;5.32;50.96
7754;BME280;3921;42.266;23.122;2023-04-06T00:16:45;95367.16;;;5.71;51.18
7754;BME280;3921;42.266;23.122;2023-04-06T00:19:13;95348.09;;;5.76;50.79
7754;BME280;3921;42.266;23.122;2023-04-06T00:21:41;95348.94;;;5.78;50.86
7754;BME280;3921;42.266;23.122;2023-04-06T00:24:08;95366.53;;;5.90;50.72
7754;BME280;3921;42.266;23.122;2023-04-06T00:26:35;94980.47;;;3.47;50.65
7754;BME280;3921;42.266;23.122;2023-04-06T00:29:02;95239.19;;;4.88;50.72
7754;BME280;3921;42.266;23.122;2023-04-06T00:31:29;95419.16;;;6.10;50.60
7754;BME280;3921;42.266;23.122;2023-04-06T00:33:56;95098.41;;;4.40;50.49
7754;BME280;3921;42.266;23.122;2023-04-06T00:36:24;95408.22;;;6.00;50.01
7754;BME280;3921;42.266;23.122;2023-04-06T00:38:52;95380.78;;;5.99;50.29
7754;BME280;3921;42.266;23.122;2023-04-06T00:41:19;95359.81;;;5.84;50.06
7754;BME280;3921;42.266;23.122;2023-04-06T00:43:46;95331.41;;;5.69;50.46
7754;BME280;3921;42.266;23.122;2023-04-06T00:46:13;95381.69;;;6.07;50.03
7754;BME280;3921;42.266;23.122;2023-04-06T00:48:40;95359.81;;;5.83;49.66
7754;BME280;3921;42.266;23.122;2023-04-06T00:51:08;95220.81;;;4.80;49.98
7754;BME280;3921;42.266;23.122;2023-04-06T00:53:36;95425.03;;;6.18;50.05
7754;BME280;3921;42.266;23.122;2023-04-06T00:56:14;95386.59;;;5.99;50.00
7754;BME280;3921;42.266;23.122;2023-04-06T00:58:41;95424.19;;;6.16;50.26
7754;BME280;3921;42.266;23.122;2023-04-06T01:01:08;95439.34;;;6.36;50.33
7754;BME280;3921;42.266;23.122;2023-04-06T01:03:35;95136.69;;;4.50;49.90
7754;BME280;3921;42.266;23.122;2023-04-06T01:06:03;94897.09;;;3.02;50.19
7754;BME280;3921;42.266;23.122;2023-04-06T01:08:30;95271.19;;;5.29;49.67
7754;BME280;3921;42.266;23.122;2023-04-06T01:11:00;95315.41;;;5.48;50.50
7754;BME280;3921;42.266;23.122;2023-04-06T01:13:27;95438.34;;;6.19;50.53
7754;BME280;3921;42.266;23.122;2023-04-06T01:15:55;95124.66;;;4.17;50.45
7754;BME280;3921;42.266;23.122;2023-04-06T01:18:28;95197.66;;;4.87;50.61
7754;BME280;3921;42.266;23.122;2023-04-06T01:20:55;95321.34;;;5.59;50.58
7754;BME280;3921;42.266;23.122;2023-04-06T01:23:25;95425.97;;;6.29;50.36
7754;BME280;3921;42.266;23.122;2023-04-06T01:25:52;95082.13;;;3.95;50.58
7754;BME280;3921;42.266;23.122;2023-04-06T01:28:19;95303.00;;;5.51;50.34
7754;BME280;3921;42.266;23.122;2023-04-06T01:30:46;95329.66;;;5.58;50.26
7754;BME280;3921;42.266;23.122;2023-04-06T01:33:13;95174.97;;;4.63;50.99
7754;BME280;3921;42.266;23.122;2023-04-06T01:35:40;95405.78;;;6.05;50.11
7754;BME280;3921;42.266;23.122;2023-04-06T01:38:07;95311.25;;;5.46;50.37
7754;BME280;3921;42.266;23.122;2023-04-06T01:40:36;95170.00;;;4.63;51.17
7754;BME280;3921;42.266;23.122;2023-04-06T01:43:03;95307.22;;;5.60;50.85
7754;BME280;3921;42.266;23.122;2023-04-06T01:45:30;94981.50;;;3.63;50.35
7754;BME280;3921;42.266;23.122;2023-04-06T01:47:57;95294.59;;;5.43;50.78
7754;BME280;3921;42.266;23.122;2023-04-06T01:50:24;95434.19;;;6.19;50.53
7754;BME280;3921;42.266;23.122;2023-04-06T01:52:51;95250.13;;;5.01;50.42
7754;BME280;3921;42.266;23.122;2023-04-06T01:55:18;95334.88;;;5.83;50.28
7754;BME280;3921;42.266;23.122;2023-04-06T01:57:47;95304.72;;;5.57;50.97
7754;BME280;3921;42.266;23.122;2023-04-06T02:00:15;95178.50;;;4.80;50.65
7754;BME280;3921;42.266;23.122;2023-04-06T02:02:42;95308.88;;;5.56;50.92
7754;BME280;3921;42.266;23.122;2023-04-06T02:05:09;95196.00;;;4.86;50.69
7754;BME280;3921;42.266;23.122;2023-04-06T02:07:36;95131.75;;;4.53;51.10
7754;BME280;3921;42.266;23.122;2023-04-06T02:10:04;95139.81;;;4.35;51.58
7754;BME280;3921;42.266;23.122;2023-04-06T02:12:31;95005.66;;;3.73;51.53
7754;BME280;3921;42.266;23.122;2023-04-06T02:14:59;95283.78;;;5.43;51.48
7754;BME280;3921;42.266;23.122;2023-04-06T02:17:26;95272.25;;;5.51;51.31
7754;BME280;3921;42.266;23.122;2023-04-06T02:19:53;95298.09;;;5.60;51.49
7754;BME280;3921;42.266;23.122;2023-04-06T02:22:23;95275.53;;;5.48;50.84
7754;BME280;3921;42.266;23.122;2023-04-06T02:24:50;95222.81;;;5.10;51.54
7754;BME280;3921;42.266;23.122;2023-04-06T02:27:17;95268.03;;;5.45;50.81
7754;BME280;3921;42.266;23.122;2023-04-06T02:29:44;95291.41;;;5.56;51.42
7754;BME280;3921;42.266;23.122;2023-04-06T02:32:12;95300.63;;;5.62;50.70
7754;BME280;3921;42.266;23.122;2023-04-06T02:34:43;95311.38;;;5.59;50.31
7754;BME280;3921;42.266;23.122;2023-04-06T02:37:10;95184.31;;;4.79;50.73
7754;BME280;3921;42.266;23.122;2023-04-06T02:39:37;95231.84;;;5.00;50.64
7754;BME280;3921;42.266;23.122;2023-04-06T02:42:04;95129.06;;;4.38;51.17
7754;BME280;3921;42.266;23.122;2023-04-06T02:44:31;95197.56;;;4.76;50.78
7754;BME280;3921;42.266;23.122;2023-04-06T02:46:58;95076.53;;;4.12;51.03
7754;BME280;3921;42.266;23.122;2023-04-06T02:49:26;94983.06;;;3.56;51.03
7754;BME280;3921;42.266;23.122;2023-04-06T02:51:53;95406.63;;;6.07;51.36
7754;BME280;3921;42.266;23.122;2023-04-06T02:54:21;95281.22;;;5.35;51.50
7754;BME280;3921;42.266;23.122;2023-04-06T02:56:49;95398.34;;;6.08;51.17
7754;BME280;3921;42.266;23.122;2023-04-06T02:59:16;95242.84;;;5.19;51.60
7754;BME280;3921;42.266;23.122;2023-04-06T03:01:44;95313.09;;;5.64;51.15
7754;BME280;3921;42.266;23.122;2023-04-06T03:04:11;95302.75;;;5.33;51.70
7754;BME280;3921;42.266;23.122;2023-04-06T03:06:39;95385.63;;;5.86;51.17
7754;BME280;3921;42.266;23.122;2023-04-06T03:09:06;95222.72;;;4.99;51.38
7754;BME280;3921;42.266;23.122;2023-04-06T03:11:33;95293.63;;;5.32;51.62
7754;BME280;3921;42.266;23.122;2023-04-06T03:14:00;95170.75;;;4.56;50.94
7754;BME280;3921;42.266;23.122;2023-04-06T03:16:27;95214.31;;;4.93;50.40
7754;BME280;3921;42.266;23.122;2023-04-06T03:18:54;95231.94;;;5.08;50.56
7754;BME280;3921;42.266;23.122;2023-04-06T03:21:22;94976.34;;;3.49;51.22
7754;BME280;3921;42.266;23.122;2023-04-06T03:23:50;95291.31;;;5.47;51.36
7754;BME280;3921;42.266;23.122;2023-04-06T03:26:17;95116.56;;;4.30;50.75
7754;BME280;3921;42.266;23.122;2023-04-06T03:28:44;95279.44;;;5.25;50.94
7754;BME280;3921;42.266;23.122;2023-04-06T03:31:14;95343.75;;;5.56;50.97
7754;BME280;3921;42.266;23.122;2023-04-06T03:33:41;95281.88;;;5.20;51.47
7754;BME280;3921;42.266;23.122;2023-04-06T03:36:08;95253.34;;;4.94;51.51
7754;BME280;3921;42.266;23.122;2023-04-06T03:38:35;95080.44;;;3.94;51.24
7754;BME280;3921;42.266;23.122;2023-04-06T03:41:04;95088.75;;;3.95;51.69
7754;BME280;3921;42.266;23.122;2023-04-06T03:43:31;95286.16;;;5.30;51.39
7754;BME280;3921;42.266;23.122;2023-04-06T03:45:58;95308.69;;;5.43;51.64
7754;BME280;3921;42.266;23.122;2023-04-06T03:48:25;95005.28;;;3.45;52.16
7754;BME280;3921;42.266;23.122;2023-04-06T03:50:52;95295.22;;;5.25;51.84
7754;BME280;3921;42.266;23.122;2023-04-06T03:53:19;95398.25;;;5.99;51.48
7754;BME280;3921;42.266;23.122;2023-04-06T03:55:46;95239.28;;;4.97;51.55
7754;BME280;3921;42.266;23.122;2023-04-06T03:58:15;95240.22;;;5.05;51.29
7754;BME280;3921;42.266;23.122;2023-04-06T04:00:41;95260.13;;;5.05;51.61
7754;BME280;3921;42.266;23.122;2023-04-06T04:03:09;95141.44;;;4.30;52.13
7754;BME280;3921;42.266;23.122;2023-04-06T04:05:36;95184.91;;;4.60;51.69
7754;BME280;3921;42.266;23.122;2023-04-06T04:08:10;95280.13;;;5.12;51.82
7754;BME280;3921;42.266;23.122;2023-04-06T04:10:37;95346.38;;;5.69;52.32
7754;BME280;3921;42.266;23.122;2023-04-06T04:13:04;95118.91;;;4.19;52.08
7754;BME280;3921;42.266;23.122;2023-04-06T04:15:32;95386.53;;;5.92;52.25
7754;BME280;3921;42.266;23.122;2023-04-06T04:17:59;95127.97;;;4.16;52.54
7754;BME280;3921;42.266;23.122;2023-04-06T04:20:26;95225.91;;;4.89;52.20
7754;BME280;3921;42.266;23.122;2023-04-06T04:22:53;95261.16;;;5.23;52.80
7754;BME280;3921;42.266;23.122;2023-04-06T04:25:21;95095.72;;;4.23;52.92
7754;BME280;3921;42.266;23.122;2023-04-06T04:27:48;95257.56;;;4.99;52.60
7754;BME280;3921;42.266;23.122;2023-04-06T04:30:16;95001.47;;;3.70;52.15
7754;BME280;3921;42.266;23.122;2023-04-06T04:32:44;95386.56;;;5.96;52.17
7754;BME280;3921;42.266;23.122;2023-04-06T04:35:13;95052.34;;;4.00;52.82
7754;BME280;3921;42.266;23.122;2023-04-06T04:37:40;95418.13;;;5.94;53.01
7754;BME280;3921;42.266;23.122;2023-04-06T04:40:09;95261.13;;;5.20;53.01
7754;BME280;3921;42.266;23.122;2023-04-06T04:42:36;95161.56;;;4.48;52.67
7754;BME280;3921;42.266;23.122;2023-04-06T04:45:04;94979.63;;;3.45;52.46
7754;BME280;3921;42.266;23.122;2023-04-06T04:47:34;95103.19;;;4.22;52.46
7754;BME280;3921;42.266;23.122;2023-04-06T04:50:03;95216.84;;;4.94;52.01
7754;BME280;3921;42.266;23.122;2023-04-06T04:52:30;95060.56;;;3.94;52.34
7754;BME280;3921;42.266;23.122;2023-04-06T04:54:57;94997.22;;;3.62;52.36
7754;BME280;3921;42.266;23.122;2023-04-06T04:57:24;95276.94;;;5.25;53.24
7754;BME280;3921;42.266;23.122;2023-04-06T04:59:51;95264.47;;;5.22;53.20
7754;BME280;3921;42.266;23.122;2023-04-06T05:02:18;95190.09;;;4.76;52.25
7754;BME280;3921;42.266;23.122;2023-04-06T05:04:45;95394.97;;;6.06;52.54
7754;BME280;3921;42.266;23.122;2023-04-06T05:07:13;95305.44;;;5.50;52.43
7754;BME280;3921;42.266;23.122;2023-04-06T05:09:44;95373.31;;;6.02;52.78
7754;BME280;3921;42.266;23.122;2023-04-06T05:12:11;95246.97;;;5.17;52.57
7754;BME280;3921;42.266;23.122;2023-04-06T05:14:38;95399.19;;;6.10;52.17
7754;BME280;3921;42.266;23.122;2023-04-06T05:17:05;95364.81;;;5.84;52.27
7754;BME280;3921;42.266;23.122;2023-04-06T05:19:32;95372.44;;;5.95;51.54
7754;BME280;3921;42.266;23.122;2023-04-06T05:21:59;95395.75;;;6.02;52.25
7754;BME280;3921;42.266;23.122;2023-04-06T05:24:28;94965.47;;;3.39;52.12
7754;BME280;3921;42.266;23.122;2023-04-06T05:26:58;95242.66;;;5.01;52.22
7754;BME280;3921;42.266;23.122;2023-04-06T05:29:26;95100.00;;;4.34;51.63
7754;BME280;3921;42.266;23.122;2023-04-06T05:31:54;94948.94;;;3.41;51.60
7754;BME280;3921;42.266;23.122;2023-04-06T05:34:21;95136.00;;;4.63;52.40
7754;BME280;3921;42.266;23.122;2023-04-06T05:36:48;95146.72;;;4.58;52.24
7754;BME280;3921;42.266;23.122;2023-04-06T05:39:16;95144.22;;;4.56;52.49
7754;BME280;3921;42.266;23.122;2023-04-06T05:41:44;94991.47;;;3.66;52.38
7754;BME280;3921;42.266;23.122;2023-04-06T05:44:11;95267.09;;;5.37;52.14
7754;BME280;3921;42.266;23.122;2023-04-06T05:46:38;95293.88;;;5.55;51.96
7754;BME280;3921;42.266;23.122;2023-04-06T05:49:05;95390.00;;;6.07;51.84
7754;BME280;3921;42.266;23.122;2023-04-06T05:51:32;95294.09;;;5.76;51.68
7754;BME280;3921;42.266;23.122;2023-04-06T05:53:59;95243.91;;;5.44;51.84
7754;BME280;3921;42.266;23.122;2023-04-06T05:56:26;95183.78;;;5.09;51.49
7754;BME280;3921;42.266;23.122;2023-04-06T05:58:56;95213.72;;;5.15;51.48
7754;BME280;3921;42.266;23.122;2023-04-06T06:01:23;95035.13;;;4.15;52.05
7754;BME280;3921;42.266;23.122;2023-04-06T06:03:50;95220.50;;;5.25;51.27
7754;BME280;3921;42.266;23.122;2023-04-06T06:06:17;95280.69;;;5.65;50.99
7754;BME280;3921;42.266;23.122;2023-04-06T06:08:44;95254.72;;;5.45;51.55
7754;BME280;3921;42.266;23.122;2023-04-06T06:11:16;95292.28;;;5.62;51.58
7754;BME280;3921;42.266;23.122;2023-04-06T06:13:43;95244.75;;;5.45;51.86
7754;BME280;3921;42.266;23.122;2023-04-06T06:16:12;95328.38;;;5.96;51.50
7754;BME280;3921;42.266;23.122;2023-04-06T06:18:39;95310.81;;;5.85;51.50
7754;BME280;3921;42.266;23.122;2023-04-06T06:21:06;95232.94;;;5.27;51.52
7754;BME280;3921;42.266;23.122;2023-04-06T06:23:33;95104.47;;;4.64;51.61
7754;BME280;3921;42.266;23.122;2023-04-06T06:26:00;95073.59;;;4.42;51.64
7754;BME280;3921;42.266;23.122;2023-04-06T06:28:31;94997.53;;;3.89;51.82
7754;BME280;3921;42.266;23.122;2023-04-06T06:30:58;95312.44;;;5.84;51.45
7754;BME280;3921;42.266;23.122;2023-04-06T06:33:26;94824.16;;;2.89;51.54
7754;BME280;3921;42.266;23.122;2023-04-06T06:35:53;94923.53;;;3.62;52.10
7754;BME280;3921;42.266;23.122;2023-04-06T06:38:20;95187.09;;;5.10;51.39
7754;BME280;3921;42.266;23.122;2023-04-06T06:40:47;95246.56;;;5.61;51.64
7754;BME280;3921;42.266;23.122;2023-04-06T06:43:14;95204.75;;;5.29;51.67
7754;BME280;3921;42.266;23.122;2023-04-06T06:45:42;95194.72;;;5.22;51.82
7754;BME280;3921;42.266;23.122;2023-04-06T06:48:09;95196.47;;;5.32;51.16
7754;BME280;3921;42.266;23.122;2023-04-06T06:50:37;95250.09;;;5.84;50.47
7754;BME280;3921;42.266;23.122;2023-04-06T06:53:04;95298.50;;;6.02;50.29
7754;BME280;3921;42.266;23.122;2023-04-06T06:55:32;95038.72;;;4.37;51.06
7754;BME280;3921;42.266;23.122;2023-04-06T06:57:59;95066.22;;;4.52;51.53
7754;BME280;3921;42.266;23.122;2023-04-06T07:00:26;95188.16;;;5.31;51.16
7754;BME280;3921;42.266;23.122;2023-04-06T07:02:53;95265.06;;;5.83;51.16
7754;BME280;3921;42.266;23.122;2023-04-06T07:05:23;95250.06;;;5.77;51.43
7754;BME280;3921;42.266;23.122;2023-04-06T07:07:51;94916.91;;;3.64;51.12
7754;BME280;3921;42.266;23.122;2023-04-06T07:10:19;95276.03;;;5.97;50.79
7754;BME280;3921;42.266;23.122;2023-04-06T07:12:46;95277.53;;;5.80;50.94
7754;BME280;3921;42.266;23.122;2023-04-06T07:15:13;95229.25;;;5.73;50.51
7754;BME280;3921;42.266;23.122;2023-04-06T07:17:40;95303.56;;;6.11;51.01
7754;BME280;3921;42.266;23.122;2023-04-06T07:20:10;95240.19;;;5.89;51.13
7754;BME280;3921;42.266;23.122;2023-04-06T07:22:37;95274.50;;;6.15;51.11
7754;BME280;3921;42.266;23.122;2023-04-06T07:25:08;94962.31;;;4.25;50.87
7754;BME280;3921;42.266;23.122;2023-04-06T07:27:36;95246.00;;;5.86;50.88
7754;BME280;3921;42.266;23.122;2023-04-06T07:30:03;95217.59;;;5.71;49.89
7754;BME280;3921;42.266;23.122;2023-04-06T07:32:31;95277.81;;;6.13;49.50
7754;BME280;3921;42.266;23.122;2023-04-06T07:35:00;95260.25;;;6.01;49.48
7754;BME280;3921;42.266;23.122;2023-04-06T07:37:27;94995.53;;;4.32;49.52
7754;BME280;3921;42.266;23.122;2023-04-06T07:39:54;95195.13;;;5.65;49.76
7754;BME280;3921;42.266;23.122;2023-04-06T07:42:22;95024.94;;;4.73;49.49
7754;BME280;3921;42.266;23.122;2023-04-06T07:44:49;95208.53;;;5.82;49.73
7754;BME280;3921;42.266;23.122;2023-04-06T07:47:16;94814.00;;;3.39;49.46
7754;BME280;3921;42.266;23.122;2023-04-06T07:49:43;95090.66;;;4.90;49.67
7754;BME280;3921;42.266;23.122;2023-04-06T07:52:10;95287.13;;;6.36;48.50
7754;BME280;3921;42.266;23.122;2023-04-06T07:54:37;95042.31;;;4.65;49.37
7754;BME280;3921;42.266;23.122;2023-04-06T07:57:04;95256.22;;;6.17;49.85
7754;BME280;3921;42.266;23.122;2023-04-06T07:59:33;95276.97;;;6.11;49.52
7754;BME280;3921;42.266;23.122;2023-04-06T08:02:00;95226.88;;;5.89;49.06
7754;BME280;3921;42.266;23.122;2023-04-06T08:04:27;95271.25;;;6.25;49.94
7754;BME280;3921;42.266;23.122;2023-04-06T08:06:54;95296.31;;;6.37;50.43
7754;BME280;3921;42.266;23.122;2023-04-06T08:09:21;95158.47;;;5.54;49.97
7754;BME280;3921;42.266;23.122;2023-04-06T08:11:48;95276.22;;;6.20;50.08
7754;BME280;3921;42.266;23.122;2023-04-06T08:14:15;95038.44;;;4.93;50.12
7754;BME280;3921;42.266;23.122;2023-04-06T08:16:43;95371.59;;;6.97;49.97
7754;BME280;3921;42.266;23.122;2023-04-06T08:19:10;95372.47;;;7.00;50.13
7754;BME280;3921;42.266;23.122;2023-04-06T08:21:37;95337.28;;;6.68;49.66
7754;BME280;3921;42.266;23.122;2023-04-06T08:24:11;94814.41;;;3.82;49.69
7754;BME280;3921;42.266;23.122;2023-04-06T08:26:38;95390.09;;;7.23;49.06
7754;BME280;3921;42.266;23.122;2023-04-06T08:34:38;95245.63;;;6.53;49.78
7754;BME280;3921;42.266;23.122;2023-04-06T08:37:06;95127.09;;;5.84;49.77
7754;BME280;3921;42.266;23.122;2023-04-06T08:39:33;95148.81;;;5.91;48.72
7754;BME280;3921;42.266;23.122;2023-04-06T08:42:01;95279.13;;;6.83;48.60
7754;BME280;3921;42.266;23.122;2023-04-06T08:44:29;95367.63;;;7.29;49.30
7754;BME280;3921;42.266;23.122;2023-04-06T08:46:57;95252.38;;;6.63;49.15
7754;BME280;3921;42.266;23.122;2023-04-06T08:49:26;95269.97;;;6.85;49.25
7754;BME280;3921;42.266;23.122;2023-04-06T08:51:55;95214.91;;;6.56;49.08
7754;BME280;3921;42.266;23.122;2023-04-06T08:54:23;95275.81;;;6.90;48.80
7754;BME280;3921;42.266;23.122;2023-04-06T08:56:51;95272.47;;;6.88;48.88
7754;BME280;3921;42.266;23.122;2023-04-06T08:59:19;95100.50;;;5.80;49.20
7754;BME280;3921;42.266;23.122;2023-04-06T09:01:47;95110.53;;;5.91;49.01
7754;BME280;3921;42.266;23.122;2023-04-06T09:04:15;95273.28;;;6.87;48.59
7754;BME280;3921;42.266;23.122;2023-04-06T09:06:42;94976.25;;;5.04;49.07
7754;BME280;3921;42.266;23.122;2023-04-06T09:09:13;95181.53;;;6.42;48.54
7754;BME280;3921;42.266;23.122;2023-04-06T09:11:45;95296.75;;;7.15;48.51
7754;BME280;3921;42.266;23.122;2023-04-06T09:14:12;95236.66;;;6.84;48.38
7754;BME280;3921;42.266;23.122;2023-04-06T09:16:41;95332.72;;;7.61;47.23
7754;BME280;3921;42.266;23.122;2023-04-06T09:19:08;95217.50;;;6.82;47.51
7754;BME280;3921;42.266;23.122;2023-04-06T09:21:36;95225.03;;;6.92;47.61
7754;BME280;3921;42.266;23.122;2023-04-06T09:24:03;95207.56;;;6.97;47.69
7754;BME280;3921;42.266;23.122;2023-04-06T09:26:44;95323.63;;;7.83;48.08
7754;BME280;3921;42.266;23.122;2023-04-06T09:29:24;95131.72;;;6.61;47.73
7754;BME280;3921;42.266;23.122;2023-04-06T09:31:51;95203.47;;;7.21;47.53
7754;BME280;3921;42.266;23.122;2023-04-06T09:34:22;95241.03;;;7.45;47.79
7754;BME280;3921;42.266;23.122;2023-04-06T09:36:51;95145.09;;;6.88;48.20
7754;BME280;3921;42.266;23.122;2023-04-06T09:39:20;95124.28;;;6.78;47.62
7754;BME280;3921;42.266;23.122;2023-04-06T09:41:51;94961.81;;;5.93;47.81
7754;BME280;3921;42.266;23.122;2023-04-06T09:44:18;95303.63;;;7.95;47.49
7754;BME280;3921;42.266;23.122;2023-04-06T09:46:46;95296.97;;;7.97;47.63
7754;BME280;3921;42.266;23.122;2023-04-06T09:49:14;95163.44;;;6.96;47.52
7754;BME280;3921;42.266;23.122;2023-04-06T09:51:45;95268.59;;;7.76;48.63
7754;BME280;3921;42.266;23.122;2023-04-06T09:54:17;95301.97;;;8.02;48.16
7754;BME280;3921;42.266;23.122;2023-04-06T09:56:46;95294.47;;;8.08;48.20
7754;BME280;3921;42.266;23.122;2023-04-06T09:59:20;95183.53;;;7.37;48.00
7754;BME280;3921;42.266;23.122;2023-04-06T10:01:51;95152.69;;;7.31;48.30
7754;BME280;3921;42.266;23.122;2023-04-06T10:04:27;95256.13;;;8.09;47.98
7754;BME280;3921;42.266;23.122;2023-04-06T10:06:59;95188.53;;;7.62;47.14
7754;BME280;3921;42.266;23.122;2023-04-06T10:09:28;94996.91;;;6.51;47.03
7754;BME280;3921;42.266;23.122;2023-04-06T10:12:02;95210.25;;;7.98;46.54
7754;BME280;3921;42.266;23.122;2023-04-06T10:14:31;95115.22;;;7.54;45.73
7754;BME280;3921;42.266;23.122;2023-04-06T10:17:04;95145.19;;;7.57;45.84
7754;BME280;3921;42.266;23.122;2023-04-06T10:19:36;94792.97;;;5.44;46.13
7754;BME280;3921;42.266;23.122;2023-04-06T10:22:08;95282.81;;;8.53;46.16
7754;BME280;3921;42.266;23.122;2023-04-06T10:24:38;95171.03;;;7.91;46.09
7754;BME280;3921;42.266;23.122;2023-04-06T10:27:06;95116.88;;;7.65;46.92
7754;BME280;3921;42.266;23.122;2023-04-06T10:29:47;95067.72;;;7.63;46.48
7754;BME280;3921;42.266;23.122;2023-04-06T10:32:14;94891.22;;;6.75;46.52
7754;BME280;3921;42.266;23.122;2023-04-06T10:34:41;95170.97;;;8.50;46.00
7754;BME280;3921;42.266;23.122;2023-04-06T10:37:13;95181.72;;;8.85;46.05
7754;BME280;3921;42.266;23.122;2023-04-06T10:39:47;95143.34;;;8.78;45.95
7754;BME280;3921;42.266;23.122;2023-04-06T10:42:15;95135.75;;;8.89;45.09
7754;BME280;3921;42.266;23.122;2023-04-06T10:44:43;95250.56;;;9.82;44.46
7754;BME280;3921;42.266;23.122;2023-04-06T10:47:22;95209.72;;;9.57;44.63
7754;BME280;3921;42.266;23.122;2023-04-06T10:49:49;95137.16;;;9.32;44.82
7754;BME280;3921;42.266;23.122;2023-04-06T10:52:16;95162.06;;;9.57;44.52
7754;BME280;3921;42.266;23.122;2023-04-06T10:54:43;95102.00;;;9.43;44.32
7754;BME280;3921;42.266;23.122;2023-04-06T10:57:10;95167.56;;;10.05;44.14
7754;BME280;3921;42.266;23.122;2023-04-06T10:59:42;95103.53;;;9.61;43.42
7754;BME280;3921;42.266;23.122;2023-04-06T11:02:19;95160.94;;;9.98;43.82
7754;BME280;3921;42.266;23.122;2023-04-06T11:04:57;95137.59;;;9.85;43.29
7754;BME280;3921;42.266;23.122;2023-04-06T11:07:24;94774.50;;;7.35;41.63
7754;BME280;3921;42.266;23.122;2023-04-06T11:09:52;94726.19;;;7.33;41.33
7754;BME280;3921;42.266;23.122;2023-04-06T11:12:23;95196.78;;;10.12;41.67
7754;BME280;3921;42.266;23.122;2023-04-06T11:14:55;95057.94;;;9.10;41.75
7754;BME280;3921;42.266;23.122;2023-04-06T11:17:26;95250.28;;;10.19;42.10
7754;BME280;3921;42.266;23.122;2023-04-06T11:19:53;94985.75;;;8.40;41.11
7754;BME280;3921;42.266;23.122;2023-04-06T11:22:22;95168.88;;;9.43;41.40
7754;BME280;3921;42.266;23.122;2023-04-06T11:24:49;95098.13;;;8.98;42.31
7754;BME280;3921;42.266;23.122;2023-04-06T11:27:17;95009.22;;;8.16;42.41
7754;BME280;3921;42.266;23.122;2023-04-06T11:29:45;95246.41;;;9.73;43.00
7754;BME280;3921;42.266;23.122;2023-04-06T11:32:20;94997.53;;;8.16;43.26
7754;BME280;3921;42.266;23.122;2023-04-06T11:34:48;94742.34;;;6.48;43.46
7754;BME280;3921;42.266;23.122;2023-04-06T11:37:26;95082.41;;;8.74;43.42
7754;BME280;3921;42.266;23.122;2023-04-06T11:39:54;95022.53;;;8.21;42.80
7754;BME280;3921;42.266;23.122;2023-04-06T11:42:23;95096.53;;;8.82;43.18
7754;BME280;3921;42.266;23.122;2023-04-06T11:44:51;95131.53;;;8.98;43.85
7754;BME280;3921;42.266;23.122;2023-04-06T11:47:19;95156.56;;;9.06;43.08
7754;BME280;3921;42.266;23.122;2023-04-06T11:49:48;95134.94;;;8.82;43.48
7754;BME280;3921;42.266;23.122;2023-04-06T11:52:17;95149.09;;;8.94;44.25
7754;BME280;3921;42.266;23.122;2023-04-06T11:54:46;95037.47;;;8.35;44.26
7754;BME280;3921;42.266;23.122;2023-04-06T11:57:14;95109.94;;;8.74;44.30
7754;BME280;3921;42.266;23.122;2023-04-06T11:59:42;94639.34;;;5.69;45.05
7754;BME280;3921;42.266;23.122;2023-04-06T12:02:10;95092.44;;;8.68;45.32
7754;BME280;3921;42.266;23.122;2023-04-06T12:04:37;95152.41;;;9.02;44.82
7754;BME280;3921;42.266;23.122;2023-04-06T12:07:05;95235.72;;;9.48;45.51
7754;BME280;3921;42.266;23.122;2023-04-06T12:09:36;95034.19;;;8.23;45.27
7754;BME280;3921;42.266;23.122;2023-04-06T12:12:05;95124.13;;;8.78;44.96
7754;BME280;3921;42.266;23.122;2023-04-06T12:14:32;94888.66;;;7.24;43.70
7754;BME280;3921;42.266;23.122;2023-04-06T12:16:59;94950.19;;;7.61;43.73
7754;BME280;3921;42.266;23.122;2023-04-06T12:19:26;95110.91;;;8.49;44.25
7754;BME280;3921;42.266;23.122;2023-04-06T12:21:54;95137.50;;;8.77;43.91
7754;BME280;3921;42.266;23.122;2023-04-06T12:24:22;95111.66;;;8.66;44.58
7754;BME280;3921;42.266;23.122;2023-04-06T12:26:50;94864.59;;;6.95;44.77
7754;BME280;3921;42.266;23.122;2023-04-06T12:29:19;95139.97;;;8.84;45.22
7754;BME280;3921;42.266;23.122;2023-04-06T12:31:46;95144.22;;;8.63;44.83
7754;BME280;3921;42.266;23.122;2023-04-06T12:34:13;95115.84;;;8.61;44.04
7754;BME280;3921;42.266;23.122;2023-04-06T12:36:40;94938.53;;;7.56;44.12
7754;BME280;3921;42.266;23.122;2023-04-06T12:39:07;95045.84;;;8.29;44.38
7754;BME280;3921;42.266;23.122;2023-04-06T12:41:34;94884.50;;;7.19;44.81
7754;BME280;3921;42.266;23.122;2023-04-06T12:44:01;95219.06;;;9.35;44.53
7754;BME280;3921;42.266;23.122;2023-04-06T12:46:30;94819.63;;;6.87;43.90
7754;BME280;3921;42.266;23.122;2023-04-06T12:48:57;94962.69;;;7.70;43.96
7754;BME280;3921;42.266;23.122;2023-04-06T12:51:27;95136.66;;;8.78;44.65
7754;BME280;3921;42.266;23.122;2023-04-06T12:53:54;95094.16;;;8.57;44.83
7754;BME280;3921;42.266;23.122;2023-04-06T12:56:21;94867.03;;;7.15;44.64
7754;BME280;3921;42.266;23.122;2023-04-06T12:58:50;95108.31;;;8.63;44.75
7754;BME280;3921;42.266;23.122;2023-04-06T13:01:18;95158.31;;;8.86;44.32
7754;BME280;3921;42.266;23.122;2023-04-06T13:03:52;95026.75;;;8.07;43.66
7754;BME280;3921;42.266;23.122;2023-04-06T13:06:21;94793.06;;;6.56;43.47
7754;BME280;3921;42.266;23.122;2023-04-06T13:08:48;95177.47;;;8.99;44.27
7754;BME280;3921;42.266;23.122;2023-04-06T13:11:15;95203.25;;;9.25;43.70
7754;BME280;3921;42.266;23.122;2023-04-06T13:13:42;95025.03;;;8.13;43.89
7754;BME280;3921;42.266;23.122;2023-04-06T13:16:09;95200.72;;;9.27;43.38
7754;BME280;3921;42.266;23.122;2023-04-06T13:18:37;95200.78;;;9.12;44.30
7754;BME280;3921;42.266;23.122;2023-04-06T13:21:07;95197.41;;;9.22;44.47
7754;BME280;3921;42.266;23.122;2023-04-06T13:23:35;94794.72;;;6.63;44.77
7754;BME280;3921;42.266;23.122;2023-04-06T13:26:03;94831.28;;;6.90;44.60
7754;BME280;3921;42.266;23.122;2023-04-06T13:28:36;94863.66;;;7.25;44.28
7754;BME280;3921;42.266;23.122;2023-04-06T13:31:04;95130.72;;;8.96;43.73
7754;BME280;3921;42.266;23.122;2023-04-06T13:33:32;95113.31;;;8.72;43.40